createdAt,value
2023-04-12T00:02:54.359Z,5.60
2023-04-12T00:06:57.966Z,5.60
2023-04-12T00:11:01.004Z,5.70
2023-04-12T00:15:05.172Z,5.70
2023-04-12T00:19:11.619Z,5.60
2023-04-12T00:23:14.419Z,5.60
2023-04-12T00:27:17.248Z,5.60
2023-04-12T00:31:20.083Z,5.60
2023-04-12T00:35:24.333Z,5.60
2023-04-12T00:39:27.403Z,5.60
2023-04-12T00:43:30.209Z,5.50
2023-04-12T00:47:33.096Z,5.50
2023-04-12T00:51:37.919Z,5.60
2023-04-12T00:55:41.177Z,5.60
2023-04-12T00:59:44.046Z,5.60
2023-04-12T01:03:47.014Z,5.60
2023-04-12T01:07:54.349Z,5.60
2023-04-12T01:12:03.223Z,5.60
2023-04-12T01:16:09.036Z,5.60
2023-04-12T01:20:16.621Z,5.70
2023-04-12T01:24:29.145Z,5.70
2023-04-12T01:28:35.234Z,5.70
2023-04-12T01:32:39.354Z,5.70
2023-04-12T01:36:42.438Z,5.70
2023-04-12T01:40:45.261Z,5.70
2023-04-12T01:44:50.419Z,5.80
2023-04-12T01:48:54.578Z,5.80
2023-04-12T01:53:00.862Z,5.80
2023-04-12T01:57:04.733Z,5.90
2023-04-12T02:01:09.390Z,5.90
2023-04-12T02:05:12.491Z,5.90
2023-04-12T02:09:16.046Z,6.00
2023-04-12T02:13:19.104Z,6.00
2023-04-12T02:17:23.627Z,6.10
2023-04-12T02:21:27.868Z,6.10
2023-04-12T02:25:30.982Z,6.20
2023-04-12T02:29:33.867Z,6.30
2023-04-12T02:33:38.014Z,6.40
2023-04-12T02:37:41.250Z,6.40
2023-04-12T02:41:44.052Z,6.50
2023-04-12T02:45:47.784Z,6.50
2023-04-12T02:49:51.940Z,6.60
2023-04-12T02:53:55.596Z,6.70
2023-04-12T02:57:58.580Z,6.70
2023-04-12T03:02:01.496Z,6.80
2023-04-12T03:06:06.343Z,6.80
2023-04-12T03:10:12.015Z,6.90
2023-04-12T03:14:15.021Z,6.90
2023-04-12T03:18:20.854Z,7.00
2023-04-12T03:22:26.194Z,7.10
2023-04-12T03:26:28.979Z,7.10
2023-04-12T03:30:31.942Z,7.20
2023-04-12T03:34:34.774Z,7.20
2023-04-12T03:38:39.005Z,7.30
2023-04-12T03:42:41.798Z,7.30
2023-04-12T03:46:44.715Z,7.30
2023-04-12T03:50:48.488Z,7.40
2023-04-12T03:54:52.686Z,7.40
2023-04-12T03:58:56.030Z,7.40
2023-04-12T04:03:03.874Z,7.40
2023-04-12T04:07:07.939Z,7.50
2023-04-12T04:11:13.251Z,7.40
2023-04-12T04:15:16.229Z,7.40
2023-04-12T04:19:19.028Z,7.40
2023-04-12T04:23:22.250Z,7.40
2023-04-12T04:27:26.401Z,7.40
2023-04-12T04:31:34.208Z,7.40
2023-04-12T04:35:40.107Z,7.40
2023-04-12T04:39:43.411Z,7.40
2023-04-12T04:43:49.172Z,7.40
2023-04-12T04:47:52.049Z,7.40
2023-04-12T04:51:55.323Z,7.50
2023-04-12T04:56:02.071Z,7.50
2023-04-12T05:00:11.275Z,7.50
2023-04-12T05:04:14.215Z,7.50
2023-04-12T05:08:17.049Z,7.50
2023-04-12T05:12:19.858Z,7.50
2023-04-12T05:16:24.131Z,7.50
2023-04-12T05:20:26.998Z,7.50
2023-04-12T05:24:29.781Z,7.50
2023-04-12T05:28:32.681Z,7.50
2023-04-12T05:32:36.862Z,7.60
2023-04-12T05:36:39.668Z,7.60
2023-04-12T05:40:44.146Z,7.60
2023-04-12T05:44:49.875Z,7.60
2023-04-12T05:48:54.416Z,7.70
2023-04-12T05:52:57.378Z,7.70
2023-04-12T05:57:00.279Z,7.90
2023-04-12T06:01:03.138Z,8.00
2023-04-12T06:05:08.599Z,8.10
2023-04-12T06:09:12.445Z,8.20
2023-04-12T06:13:15.240Z,8.30
2023-04-12T06:17:18.173Z,8.50
2023-04-12T06:21:22.393Z,8.60
2023-04-12T06:25:25.993Z,8.70
2023-04-12T06:29:28.791Z,8.80
2023-04-12T06:33:31.785Z,8.90
2023-04-12T06:37:36.158Z,9.00
2023-04-12T06:41:38.923Z,9.20
2023-04-12T06:45:41.748Z,9.30
2023-04-12T06:49:44.565Z,9.40
2023-04-12T06:53:48.736Z,9.50
2023-04-12T06:57:52.197Z,9.50
2023-04-12T07:01:55.078Z,9.60
2023-04-12T07:05:58.113Z,9.70
2023-04-12T07:10:04.325Z,9.70
2023-04-12T07:14:07.192Z,9.80
2023-04-12T07:18:10.111Z,9.90
2023-04-12T07:22:14.174Z,10.00
2023-04-12T07:26:18.978Z,10.00
2023-04-12T07:30:21.958Z,10.00
2023-04-12T07:34:25.149Z,10.10
2023-04-12T07:38:28.132Z,10.10
2023-04-12T07:42:32.266Z,10.10
2023-04-12T07:46:35.146Z,10.10
2023-04-12T07:50:38.744Z,10.10
2023-04-12T07:54:42.587Z,10.10
2023-04-12T07:58:46.732Z,10.10
2023-04-12T08:02:49.616Z,10.20
2023-04-12T08:06:53.065Z,10.10
2023-04-12T08:10:55.852Z,10.20
2023-04-12T08:15:00.011Z,10.10
2023-04-12T08:19:02.816Z,10.10
2023-04-12T08:23:05.650Z,10.10
2023-04-12T08:27:08.474Z,10.10
2023-04-12T08:31:13.190Z,10.10
2023-04-12T08:35:16.269Z,10.00
2023-04-12T08:39:19.075Z,10.00
2023-04-12T08:43:23.038Z,10.00
2023-04-12T08:47:27.399Z,10.00
2023-04-12T08:51:30.158Z,10.00
2023-04-12T08:55:32.958Z,10.00
2023-04-12T08:59:40.673Z,10.00
2023-04-12T09:03:45.664Z,10.00
2023-04-12T09:07:48.637Z,10.10
2023-04-12T09:11:51.428Z,10.10
2023-04-12T09:15:54.313Z,10.10
2023-04-12T09:19:58.536Z,10.10
2023-04-12T09:24:06.186Z,10.10
2023-04-12T09:28:22.602Z,10.10
2023-04-12T09:32:26.253Z,10.10
2023-04-12T09:36:38.300Z,10.10
2023-04-12T09:40:41.384Z,10.10
2023-04-12T09:44:44.221Z,10.20
2023-04-12T09:48:50.092Z,10.20
2023-04-12T09:52:54.805Z,10.20
2023-04-12T09:56:57.940Z,10.30
2023-04-12T10:01:02.067Z,10.30
2023-04-12T10:05:05.388Z,10.40
2023-04-12T10:09:09.788Z,10.50
2023-04-12T10:13:13.824Z,10.50
2023-04-12T10:17:16.624Z,10.60
2023-04-12T10:21:19.651Z,10.70
2023-04-12T10:25:25.372Z,10.70
2023-04-12T10:29:29.172Z,10.80
2023-04-12T10:33:32.118Z,10.90
2023-04-12T10:37:52.896Z,10.90
2023-04-12T10:42:10.581Z,10.90
2023-04-12T10:46:32.306Z,10.90
2023-04-12T10:50:36.772Z,10.90
2023-04-12T10:54:39.713Z,10.90
2023-04-12T10:58:58.949Z,10.90
2023-04-12T11:03:07.497Z,11.00
2023-04-12T11:07:12.437Z,11.10
2023-04-12T11:11:20.230Z,11.20
2023-04-12T11:15:27.266Z,11.20
2023-04-12T11:19:30.838Z,11.30
2023-04-12T11:23:36.392Z,11.40
2023-04-12T11:27:39.322Z,11.40
2023-04-12T11:31:42.115Z,11.50
2023-04-12T11:35:45.076Z,11.60
2023-04-12T11:39:50.940Z,11.60
2023-04-12T11:43:53.951Z,11.70
2023-04-12T11:47:58.288Z,11.70
2023-04-12T11:52:04.620Z,11.80
2023-04-12T11:56:11.316Z,11.80
2023-04-12T12:00:14.918Z,11.90
2023-04-12T12:04:18.058Z,12.10
2023-04-12T12:08:21.082Z,12.20
2023-04-12T12:12:25.295Z,12.30
2023-04-12T12:16:28.980Z,12.40
2023-04-12T12:20:32.020Z,12.40
2023-04-12T12:24:41.072Z,12.40
2023-04-12T12:28:50.238Z,12.40
2023-04-12T12:32:53.638Z,12.30
2023-04-12T12:36:56.940Z,12.30
2023-04-12T12:40:59.774Z,12.30
2023-04-12T12:45:04.733Z,12.30
2023-04-12T12:49:07.501Z,12.30
2023-04-12T12:53:10.747Z,12.30
2023-04-12T12:57:13.544Z,12.30
2023-04-12T13:01:17.716Z,12.30
2023-04-12T13:05:21.316Z,12.20
2023-04-12T13:09:24.167Z,12.20
2023-04-12T13:13:27.002Z,12.20
2023-04-12T13:17:31.570Z,12.20
2023-04-12T13:21:34.452Z,12.30
2023-04-12T13:25:37.235Z,12.30
2023-04-12T13:29:40.053Z,12.30
2023-04-12T13:33:44.207Z,12.30
2023-04-12T13:37:47.016Z,12.40
2023-04-12T13:41:49.783Z,12.30
2023-04-12T13:45:52.842Z,12.30
2023-04-12T13:49:57.631Z,12.30
2023-04-12T13:54:00.471Z,12.30
2023-04-12T13:58:03.293Z,12.30
2023-04-12T14:02:06.172Z,12.30
2023-04-12T14:06:10.604Z,12.30
2023-04-12T14:10:13.434Z,12.20
2023-04-12T14:14:16.926Z,12.20
2023-04-12T14:18:20.154Z,12.20
2023-04-12T14:22:24.318Z,12.20
2023-04-12T14:26:27.434Z,12.20
2023-04-12T14:30:30.231Z,12.20
2023-04-12T14:34:34.011Z,12.20
2023-04-12T14:38:38.154Z,12.20
2023-04-12T14:42:41.208Z,12.20
2023-04-12T14:46:43.987Z,12.20
2023-04-12T14:50:46.893Z,12.30
2023-04-12T14:54:51.057Z,12.30
2023-04-12T14:58:55.295Z,12.30
2023-04-12T15:03:00.880Z,12.20
2023-04-12T15:07:03.893Z,12.20
2023-04-12T15:11:09.781Z,12.30
2023-04-12T15:15:12.880Z,12.30
2023-04-12T15:19:20.790Z,12.30
2023-04-12T15:23:24.227Z,12.40
2023-04-12T15:27:30.638Z,12.40
2023-04-12T15:31:34.117Z,12.40
2023-04-12T15:35:37.195Z,12.50
2023-04-12T15:39:42.185Z,12.50
2023-04-12T15:43:49.352Z,12.60
2023-04-12T15:47:53.954Z,12.70
2023-04-12T15:51:57.794Z,12.70
2023-04-12T15:56:00.717Z,12.80
2023-04-12T16:00:12.862Z,12.80
2023-04-12T16:04:18.249Z,12.80
2023-04-12T16:08:22.102Z,12.80
2023-04-12T16:12:25.237Z,12.80
2023-04-12T16:16:29.401Z,12.80
2023-04-12T16:20:32.931Z,12.90
2023-04-12T16:24:35.736Z,12.90
2023-04-12T16:28:38.596Z,12.90
2023-04-12T16:32:42.898Z,12.90
2023-04-12T16:36:45.827Z,12.90
2023-04-12T16:40:48.622Z,12.90
2023-04-12T16:44:51.934Z,12.90
2023-04-12T16:48:58.470Z,12.90
2023-04-12T16:53:01.656Z,12.80
2023-04-12T16:57:04.719Z,12.80
2023-04-12T17:01:07.968Z,12.80
2023-04-12T17:05:13.801Z,12.70
2023-04-12T17:09:16.582Z,12.70
2023-04-12T17:13:20.354Z,12.60
2023-04-12T17:17:23.433Z,12.50
2023-04-12T17:21:27.766Z,12.30
2023-04-12T17:25:31.468Z,12.10
2023-04-12T17:29:34.550Z,11.90
2023-04-12T17:33:37.875Z,11.60
2023-04-12T17:37:42.023Z,11.30
2023-04-12T17:41:44.830Z,11.00
2023-04-12T17:45:47.849Z,10.90
2023-04-12T17:49:50.837Z,10.50
2023-04-12T17:53:57.010Z,10.30
2023-04-12T17:57:59.874Z,10.20
2023-04-12T18:02:02.859Z,9.90
2023-04-12T18:06:06.546Z,9.90
2023-04-12T18:10:12.880Z,9.80
2023-04-12T18:14:16.037Z,9.70
2023-04-12T18:18:18.853Z,9.50
2023-04-12T18:22:21.750Z,9.40
2023-04-12T18:26:26.136Z,9.40
2023-04-12T18:30:28.919Z,9.30
2023-04-12T18:34:31.857Z,9.20
2023-04-12T18:38:35.624Z,9.10
2023-04-12T18:42:39.758Z,9.00
2023-04-12T18:46:42.728Z,9.00
2023-04-12T18:50:47.402Z,8.90
2023-04-12T18:54:50.342Z,8.80
2023-04-12T18:58:56.234Z,8.70
2023-04-12T19:02:59.440Z,8.60
2023-04-12T19:07:02.291Z,8.50
2023-04-12T19:11:05.228Z,8.50
2023-04-12T19:15:10.570Z,8.40
2023-04-12T19:19:13.382Z,8.30
2023-04-12T19:23:16.577Z,8.30
2023-04-12T19:27:19.452Z,8.20
2023-04-12T19:31:23.829Z,8.10
2023-04-12T19:35:28.839Z,8.10
2023-04-12T19:39:32.467Z,8.00
2023-04-12T19:43:35.245Z,7.90
2023-04-12T19:47:44.737Z,7.80
2023-04-12T19:51:48.264Z,7.80
2023-04-12T19:55:52.451Z,7.70
2023-04-12T19:59:55.469Z,7.60
2023-04-12T20:03:59.673Z,7.60
2023-04-12T20:08:02.454Z,7.50
2023-04-12T20:12:06.657Z,7.40
2023-04-12T20:16:10.040Z,7.40
2023-04-12T20:20:15.522Z,7.30
2023-04-12T20:24:18.308Z,7.20
2023-04-12T20:28:21.189Z,7.20
2023-04-12T20:32:24.232Z,7.10
2023-04-12T20:36:29.332Z,7.00
2023-04-12T20:40:32.211Z,7.00
2023-04-12T20:44:35.017Z,7.00
2023-04-12T20:48:38.436Z,7.00
2023-04-12T20:52:42.545Z,7.00
2023-04-12T20:56:45.363Z,7.00
2023-04-12T21:00:48.164Z,7.00
2023-04-12T21:04:51.574Z,7.10
2023-04-12T21:08:55.940Z,7.10
2023-04-12T21:13:01.964Z,7.10
2023-04-12T21:17:07.075Z,7.10
2023-04-12T21:21:10.171Z,7.10
2023-04-12T21:25:16.330Z,7.10
2023-04-12T21:29:19.720Z,7.10
2023-04-12T21:33:24.740Z,7.10
2023-04-12T21:37:27.774Z,7.10
2023-04-12T21:41:31.963Z,7.10
2023-04-12T21:45:34.806Z,7.00
2023-04-12T21:49:37.590Z,7.00
2023-04-12T21:53:40.444Z,7.00
2023-04-12T21:57:44.672Z,7.00
2023-04-12T22:01:47.510Z,7.00
2023-04-12T22:06:02.895Z,7.00
2023-04-12T22:10:09.270Z,6.90
2023-04-12T22:14:13.853Z,6.90
2023-04-12T22:18:16.753Z,6.90
2023-04-12T22:22:19.568Z,6.90
2023-04-12T22:26:22.363Z,6.90
2023-04-12T22:30:27.177Z,6.90
2023-04-12T22:34:29.984Z,6.90
2023-04-12T22:38:33.082Z,6.80
2023-04-12T22:42:36.915Z,6.80
2023-04-12T22:46:43.841Z,6.80
2023-04-12T22:50:46.935Z,6.80
2023-04-12T22:54:49.870Z,6.70
2023-04-12T22:58:52.705Z,6.70
2023-04-12T23:02:57.006Z,6.70
2023-04-12T23:07:02.387Z,6.60
2023-04-12T23:11:05.369Z,6.60
2023-04-12T23:15:09.036Z,6.60
2023-04-12T23:19:14.809Z,6.50
2023-04-12T23:23:18.325Z,6.50
2023-04-12T23:27:22.771Z,6.50
2023-04-12T23:31:26.152Z,6.40
2023-04-12T23:35:30.331Z,6.40
2023-04-12T23:39:34.558Z,6.30
2023-04-12T23:43:37.369Z,6.30
2023-04-12T23:47:40.425Z,6.30
2023-04-12T23:51:44.606Z,6.30
2023-04-12T23:55:48.252Z,6.30
2023-04-12T23:59:51.637Z,6.20
